sensor_id;sensor_type;location;lat;lon;timestamp;P1;durP1;ratioP1;P2;durP2;ratioP2
75073;SDS011;63652;51.526;5.080;2022-11-11T00:27:37;23.15;;;10.35;;
75073;SDS011;63652;51.526;5.080;2022-11-11T00:30:03;21.52;;;10.50;;
75073;SDS011;63652;51.526;5.080;2022-11-11T00:32:30;19.52;;;10.65;;
75073;SDS011;63652;51.526;5.080;2022-11-11T00:35:03;22.13;;;10.93;;
75073;SDS011;63652;51.526;5.080;2022-11-11T00:38:04;26.92;;;10.57;;
75073;SDS011;63652;51.526;5.080;2022-11-11T00:40:30;22.55;;;11.90;;
75073;SDS011;63652;51.526;5.080;2022-11-11T00:42:56;17.05;;;10.63;;
75073;SDS011;63652;51.526;5.080;2022-11-11T00:45:21;25.48;;;10.63;;
75073;SDS011;63652;51.526;5.080;2022-11-11T00:50:26;22.58;;;13.13;;
75073;SDS011;63652;51.526;5.080;2022-11-11T00:53:12;21.33;;;10.93;;
75073;SDS011;63652;51.526;5.080;2022-11-11T01:15:04;23.20;;;12.68;;
75073;SDS011;63652;51.526;5.080;2022-11-11T01:17:31;21.02;;;10.98;;
75073;SDS011;63652;51.526;5.080;2022-11-11T01:20:00;19.58;;;11.52;;
75073;SDS011;63652;51.526;5.080;2022-11-11T01:22:27;25.83;;;10.85;;
75073;SDS011;63652;51.526;5.080;2022-11-11T01:24:56;22.90;;;12.00;;
75073;SDS011;63652;51.526;5.080;2022-11-11T01:27:24;25.58;;;12.68;;
75073;SDS011;63652;51.526;5.080;2022-11-11T01:29:52;21.45;;;10.70;;
75073;SDS011;63652;51.526;5.080;2022-11-11T01:32:25;24.90;;;12.38;;
75073;SDS011;63652;51.526;5.080;2022-11-11T01:37:23;21.77;;;12.25;;
75073;SDS011;63652;51.526;5.080;2022-11-11T01:39:48;23.73;;;11.82;;
75073;SDS011;63652;51.526;5.080;2022-11-11T01:42:19;23.50;;;12.15;;
75073;SDS011;63652;51.526;5.080;2022-11-11T01:44:45;24.40;;;12.55;;
75073;SDS011;63652;51.526;5.080;2022-11-11T01:47:14;23.02;;;11.60;;
75073;SDS011;63652;51.526;5.080;2022-11-11T01:49:46;20.25;;;10.20;;
75073;SDS011;63652;51.526;5.080;2022-11-11T01:57:32;22.60;;;11.20;;
75073;SDS011;63652;51.526;5.080;2022-11-11T02:00:02;20.08;;;10.43;;
75073;SDS011;63652;51.526;5.080;2022-11-11T02:02:33;19.60;;;10.82;;
75073;SDS011;63652;51.526;5.080;2022-11-11T02:05:04;21.63;;;10.90;;
75073;SDS011;63652;51.526;5.080;2022-11-11T02:07:49;22.33;;;10.55;;
75073;SDS011;63652;51.526;5.080;2022-11-11T02:10:19;18.33;;;9.75;;
75073;SDS011;63652;51.526;5.080;2022-11-11T02:12:46;22.17;;;10.75;;
75073;SDS011;63652;51.526;5.080;2022-11-11T02:15:30;24.20;;;10.38;;
75073;SDS011;63652;51.526;5.080;2022-11-11T02:18:05;21.27;;;11.02;;
75073;SDS011;63652;51.526;5.080;2022-11-11T02:25:55;24.10;;;10.70;;
75073;SDS011;63652;51.526;5.080;2022-11-11T02:28:22;18.95;;;10.65;;
75073;SDS011;63652;51.526;5.080;2022-11-11T02:30:49;19.00;;;10.68;;
75073;SDS011;63652;51.526;5.080;2022-11-11T02:33:14;21.33;;;9.30;;
75073;SDS011;63652;51.526;5.080;2022-11-11T02:35:42;20.55;;;9.23;;
75073;SDS011;63652;51.526;5.080;2022-11-11T02:38:12;21.30;;;10.75;;
75073;SDS011;63652;51.526;5.080;2022-11-11T02:40:41;19.48;;;9.13;;
75073;SDS011;63652;51.526;5.080;2022-11-11T02:43:31;16.60;;;8.65;;
75073;SDS011;63652;51.526;5.080;2022-11-11T02:45:57;19.90;;;9.25;;
75073;SDS011;63652;51.526;5.080;2022-11-11T02:48:39;25.15;;;9.32;;
75073;SDS011;63652;51.526;5.080;2022-11-11T02:59:31;19.42;;;8.73;;
75073;SDS011;63652;51.526;5.080;2022-11-11T03:01:56;20.67;;;8.88;;
75073;SDS011;63652;51.526;5.080;2022-11-11T03:04:22;19.90;;;9.75;;
75073;SDS011;63652;51.526;5.080;2022-11-11T03:06:48;14.77;;;9.25;;
75073;SDS011;63652;51.526;5.080;2022-11-11T03:09:16;21.35;;;10.43;;
75073;SDS011;63652;51.526;5.080;2022-11-11T03:11:41;22.50;;;9.15;;
75073;SDS011;63652;51.526;5.080;2022-11-11T03:14:07;20.98;;;10.05;;
75073;SDS011;63652;51.526;5.080;2022-11-11T03:16:33;22.73;;;10.27;;
75073;SDS011;63652;51.526;5.080;2022-11-11T03:19:19;16.35;;;7.82;;
75073;SDS011;63652;51.526;5.080;2022-11-11T03:21:54;23.23;;;9.90;;
75073;SDS011;63652;51.526;5.080;2022-11-11T03:24:23;19.83;;;9.68;;
75073;SDS011;63652;51.526;5.080;2022-11-11T03:27:11;18.38;;;9.32;;
75073;SDS011;63652;51.526;5.080;2022-11-11T03:29:39;20.10;;;9.85;;
75073;SDS011;63652;51.526;5.080;2022-11-11T03:39:52;16.13;;;7.88;;
75073;SDS011;63652;51.526;5.080;2022-11-11T03:42:18;22.17;;;9.80;;
75073;SDS011;63652;51.526;5.080;2022-11-11T03:44:43;19.13;;;9.32;;
75073;SDS011;63652;51.526;5.080;2022-11-11T03:47:09;20.60;;;8.85;;
75073;SDS011;63652;51.526;5.080;2022-11-11T03:49:34;21.17;;;9.45;;
75073;SDS011;63652;51.526;5.080;2022-11-11T03:52:02;23.48;;;9.35;;
75073;SDS011;63652;51.526;5.080;2022-11-11T03:54:27;23.20;;;8.82;;
75073;SDS011;63652;51.526;5.080;2022-11-11T03:56:53;21.67;;;8.75;;
75073;SDS011;63652;51.526;5.080;2022-11-11T03:59:44;23.48;;;9.77;;
75073;SDS011;63652;51.526;5.080;2022-11-11T04:02:17;20.52;;;9.85;;
75073;SDS011;63652;51.526;5.080;2022-11-11T04:08:32;19.35;;;8.40;;
75073;SDS011;63652;51.526;5.080;2022-11-11T04:14:31;24.90;;;10.40;;
75073;SDS011;63652;51.526;5.080;2022-11-11T04:17:45;18.30;;;9.38;;
75073;SDS011;63652;51.526;5.080;2022-11-11T04:20:58;19.05;;;8.82;;
75073;SDS011;63652;51.526;5.080;2022-11-11T04:23:42;17.75;;;9.10;;
75073;SDS011;63652;51.526;5.080;2022-11-11T04:32:16;17.13;;;9.00;;
75073;SDS011;63652;51.526;5.080;2022-11-11T04:35:02;14.73;;;8.23;;
75073;SDS011;63652;51.526;5.080;2022-11-11T04:37:30;21.30;;;9.80;;
75073;SDS011;63652;51.526;5.080;2022-11-11T04:39:59;18.77;;;10.02;;
75073;SDS011;63652;51.526;5.080;2022-11-11T04:42:43;18.02;;;8.68;;
75073;SDS011;63652;51.526;5.080;2022-11-11T04:45:11;18.92;;;9.55;;
75073;SDS011;63652;51.526;5.080;2022-11-11T04:47:55;19.55;;;10.57;;
75073;SDS011;63652;51.526;5.080;2022-11-11T04:50:22;20.42;;;9.88;;
75073;SDS011;63652;51.526;5.080;2022-11-11T04:52:51;19.70;;;8.73;;
75073;SDS011;63652;51.526;5.080;2022-11-11T04:55:19;18.50;;;9.30;;
75073;SDS011;63652;51.526;5.080;2022-11-11T04:58:03;21.92;;;9.10;;
75073;SDS011;63652;51.526;5.080;2022-11-11T05:16:39;23.90;;;10.23;;
75073;SDS011;63652;51.526;5.080;2022-11-11T05:29:41;20.17;;;9.73;;
75073;SDS011;63652;51.526;5.080;2022-11-11T05:32:06;28.35;;;10.20;;
75073;SDS011;63652;51.526;5.080;2022-11-11T05:34:51;22.65;;;10.00;;
75073;SDS011;63652;51.526;5.080;2022-11-11T05:38:15;20.15;;;10.10;;
75073;SDS011;63652;51.526;5.080;2022-11-11T05:40:54;17.80;;;9.70;;
75073;SDS011;63652;51.526;5.080;2022-11-11T05:43:42;19.90;;;9.70;;
75073;SDS011;63652;51.526;5.080;2022-11-11T05:46:07;24.50;;;8.90;;
75073;SDS011;63652;51.526;5.080;2022-11-11T05:48:33;20.25;;;10.23;;
75073;SDS011;63652;51.526;5.080;2022-11-11T05:50:59;22.83;;;9.02;;
75073;SDS011;63652;51.526;5.080;2022-11-11T05:53:26;22.98;;;10.32;;
75073;SDS011;63652;51.526;5.080;2022-11-11T05:56:06;17.33;;;8.82;;
75073;SDS011;63652;51.526;5.080;2022-11-11T05:58:34;22.63;;;9.27;;
75073;SDS011;63652;51.526;5.080;2022-11-11T06:05:11;21.40;;;10.30;;
75073;SDS011;63652;51.526;5.080;2022-11-11T06:15:33;18.25;;;9.40;;
75073;SDS011;63652;51.526;5.080;2022-11-11T06:18:42;16.83;;;9.00;;
75073;SDS011;63652;51.526;5.080;2022-11-11T06:21:08;21.70;;;10.32;;
75073;SDS011;63652;51.526;5.080;2022-11-11T06:23:33;20.88;;;10.10;;
75073;SDS011;63652;51.526;5.080;2022-11-11T06:26:02;17.17;;;8.93;;
75073;SDS011;63652;51.526;5.080;2022-11-11T06:31:21;16.15;;;8.75;;
75073;SDS011;63652;51.526;5.080;2022-11-11T06:33:49;18.95;;;9.75;;
75073;SDS011;63652;51.526;5.080;2022-11-11T06:36:16;19.00;;;8.82;;
75073;SDS011;63652;51.526;5.080;2022-11-11T06:38:43;17.90;;;8.98;;
75073;SDS011;63652;51.526;5.080;2022-11-11T06:41:11;22.23;;;9.90;;
75073;SDS011;63652;51.526;5.080;2022-11-11T06:43:38;21.48;;;10.85;;
75073;SDS011;63652;51.526;5.080;2022-11-11T06:46:04;26.98;;;10.23;;
75073;SDS011;63652;51.526;5.080;2022-11-11T06:48:30;21.67;;;10.27;;
75073;SDS011;63652;51.526;5.080;2022-11-11T06:51:00;18.95;;;9.80;;
75073;SDS011;63652;51.526;5.080;2022-11-11T06:53:26;17.77;;;10.07;;
75073;SDS011;63652;51.526;5.080;2022-11-11T06:55:53;20.08;;;9.32;;
75073;SDS011;63652;51.526;5.080;2022-11-11T06:58:18;18.80;;;8.57;;
75073;SDS011;63652;51.526;5.080;2022-11-11T07:00:45;21.55;;;10.20;;
75073;SDS011;63652;51.526;5.080;2022-11-11T07:03:12;19.23;;;9.90;;
75073;SDS011;63652;51.526;5.080;2022-11-11T07:05:41;23.23;;;9.80;;
75073;SDS011;63652;51.526;5.080;2022-11-11T07:08:08;20.60;;;8.63;;
75073;SDS011;63652;51.526;5.080;2022-11-11T07:10:36;18.10;;;8.23;;
75073;SDS011;63652;51.526;5.080;2022-11-11T07:13:02;18.55;;;9.27;;
75073;SDS011;63652;51.526;5.080;2022-11-11T07:15:28;21.25;;;8.77;;
75073;SDS011;63652;51.526;5.080;2022-11-11T07:17:54;19.88;;;8.07;;
75073;SDS011;63652;51.526;5.080;2022-11-11T07:20:19;18.17;;;9.15;;
75073;SDS011;63652;51.526;5.080;2022-11-11T07:22:45;18.92;;;9.25;;
75073;SDS011;63652;51.526;5.080;2022-11-11T07:25:11;21.35;;;8.52;;
75073;SDS011;63652;51.526;5.080;2022-11-11T07:27:39;17.77;;;8.75;;
75073;SDS011;63652;51.526;5.080;2022-11-11T07:30:06;17.58;;;9.10;;
75073;SDS011;63652;51.526;5.080;2022-11-11T07:32:32;17.23;;;9.07;;
75073;SDS011;63652;51.526;5.080;2022-11-11T07:34:57;17.27;;;7.03;;
75073;SDS011;63652;51.526;5.080;2022-11-11T07:37:23;16.13;;;9.05;;
75073;SDS011;63652;51.526;5.080;2022-11-11T07:39:48;15.95;;;8.48;;
75073;SDS011;63652;51.526;5.080;2022-11-11T07:42:13;16.25;;;8.43;;
75073;SDS011;63652;51.526;5.080;2022-11-11T07:44:39;16.95;;;8.18;;
75073;SDS011;63652;51.526;5.080;2022-11-11T07:47:06;15.90;;;7.47;;
75073;SDS011;63652;51.526;5.080;2022-11-11T07:49:31;17.98;;;7.90;;
75073;SDS011;63652;51.526;5.080;2022-11-11T07:51:58;16.02;;;8.23;;
75073;SDS011;63652;51.526;5.080;2022-11-11T07:54:24;15.70;;;8.63;;
75073;SDS011;63652;51.526;5.080;2022-11-11T07:56:49;15.15;;;8.82;;
75073;SDS011;63652;51.526;5.080;2022-11-11T07:59:14;14.32;;;7.40;;
75073;SDS011;63652;51.526;5.080;2022-11-11T08:01:40;15.13;;;7.93;;
75073;SDS011;63652;51.526;5.080;2022-11-11T08:04:05;16.20;;;7.90;;
75073;SDS011;63652;51.526;5.080;2022-11-11T08:06:31;14.95;;;8.35;;
75073;SDS011;63652;51.526;5.080;2022-11-11T08:08:56;17.38;;;8.38;;
75073;SDS011;63652;51.526;5.080;2022-11-11T08:11:22;15.68;;;7.88;;
75073;SDS011;63652;51.526;5.080;2022-11-11T08:14:06;14.65;;;7.97;;
75073;SDS011;63652;51.526;5.080;2022-11-11T08:16:32;18.67;;;8.82;;
75073;SDS011;63652;51.526;5.080;2022-11-11T08:18:57;20.10;;;8.02;;
75073;SDS011;63652;51.526;5.080;2022-11-11T08:21:23;15.68;;;8.15;;
75073;SDS011;63652;51.526;5.080;2022-11-11T08:23:49;19.25;;;9.07;;
75073;SDS011;63652;51.526;5.080;2022-11-11T08:26:16;16.50;;;8.07;;
75073;SDS011;63652;51.526;5.080;2022-11-11T08:28:41;15.75;;;7.90;;
75073;SDS011;63652;51.526;5.080;2022-11-11T08:31:07;19.10;;;8.73;;
75073;SDS011;63652;51.526;5.080;2022-11-11T08:33:34;18.92;;;7.78;;
75073;SDS011;63652;51.526;5.080;2022-11-11T08:35:59;14.82;;;8.15;;
75073;SDS011;63652;51.526;5.080;2022-11-11T08:38:26;14.90;;;7.70;;
75073;SDS011;63652;51.526;5.080;2022-11-11T08:40:51;17.30;;;9.57;;
75073;SDS011;63652;51.526;5.080;2022-11-11T08:43:16;18.15;;;8.73;;
75073;SDS011;63652;51.526;5.080;2022-11-11T08:45:42;17.65;;;8.95;;
75073;SDS011;63652;51.526;5.080;2022-11-11T08:48:08;20.42;;;8.38;;
75073;SDS011;63652;51.526;5.080;2022-11-11T08:50:37;15.35;;;8.10;;
75073;SDS011;63652;51.526;5.080;2022-11-11T08:53:03;13.60;;;7.82;;
75073;SDS011;63652;51.526;5.080;2022-11-11T08:55:30;18.98;;;8.85;;
75073;SDS011;63652;51.526;5.080;2022-11-11T08:57:58;17.70;;;9.57;;
75073;SDS011;63652;51.526;5.080;2022-11-11T09:00:24;18.88;;;9.45;;
75073;SDS011;63652;51.526;5.080;2022-11-11T09:02:50;21.88;;;10.00;;
75073;SDS011;63652;51.526;5.080;2022-11-11T09:05:16;21.05;;;10.18;;
75073;SDS011;63652;51.526;5.080;2022-11-11T09:07:41;19.65;;;8.95;;
75073;SDS011;63652;51.526;5.080;2022-11-11T09:10:07;23.75;;;11.73;;
75073;SDS011;63652;51.526;5.080;2022-11-11T09:12:33;17.85;;;9.85;;
75073;SDS011;63652;51.526;5.080;2022-11-11T09:14:58;21.95;;;11.52;;
75073;SDS011;63652;51.526;5.080;2022-11-11T09:17:25;19.60;;;10.82;;
75073;SDS011;63652;51.526;5.080;2022-11-11T09:19:50;20.63;;;10.43;;
75073;SDS011;63652;51.526;5.080;2022-11-11T09:22:16;22.48;;;11.70;;
75073;SDS011;63652;51.526;5.080;2022-11-11T09:24:41;20.83;;;10.80;;
75073;SDS011;63652;51.526;5.080;2022-11-11T09:27:07;26.48;;;13.05;;
75073;SDS011;63652;51.526;5.080;2022-11-11T09:29:34;25.52;;;12.80;;
75073;SDS011;63652;51.526;5.080;2022-11-11T09:31:59;23.67;;;12.07;;
75073;SDS011;63652;51.526;5.080;2022-11-11T09:34:24;23.58;;;13.05;;
75073;SDS011;63652;51.526;5.080;2022-11-11T09:36:50;23.50;;;13.02;;
75073;SDS011;63652;51.526;5.080;2022-11-11T09:39:15;23.83;;;12.00;;
75073;SDS011;63652;51.526;5.080;2022-11-11T09:41:50;24.40;;;12.15;;
75073;SDS011;63652;51.526;5.080;2022-11-11T09:44:38;22.95;;;12.38;;
75073;SDS011;63652;51.526;5.080;2022-11-11T09:47:18;23.05;;;11.40;;
75073;SDS011;63652;51.526;5.080;2022-11-11T09:52:26;20.50;;;11.02;;
75073;SDS011;63652;51.526;5.080;2022-11-11T09:54:59;21.95;;;11.88;;
75073;SDS011;63652;51.526;5.080;2022-11-11T09:59:57;27.08;;;12.70;;
75073;SDS011;63652;51.526;5.080;2022-11-11T10:03:07;21.67;;;11.70;;
75073;SDS011;63652;51.526;5.080;2022-11-11T10:05:27;21.02;;;11.70;;
75073;SDS011;63652;51.526;5.080;2022-11-11T10:07:59;21.42;;;11.07;;
75073;SDS011;63652;51.526;5.080;2022-11-11T10:10:37;18.50;;;10.38;;
75073;SDS011;63652;51.526;5.080;2022-11-11T10:13:11;24.30;;;12.73;;
75073;SDS011;63652;51.526;5.080;2022-11-11T10:15:40;22.35;;;11.18;;
75073;SDS011;63652;51.526;5.080;2022-11-11T10:18:17;22.45;;;11.43;;
75073;SDS011;63652;51.526;5.080;2022-11-11T10:20:52;23.33;;;11.23;;
75073;SDS011;63652;51.526;5.080;2022-11-11T10:23:20;17.17;;;10.43;;
75073;SDS011;63652;51.526;5.080;2022-11-11T10:28:19;20.50;;;9.68;;
75073;SDS011;63652;51.526;5.080;2022-11-11T10:30:46;20.10;;;9.50;;
75073;SDS011;63652;51.526;5.080;2022-11-11T10:33:16;19.95;;;11.23;;
75073;SDS011;63652;51.526;5.080;2022-11-11T10:35:51;19.80;;;9.35;;
75073;SDS011;63652;51.526;5.080;2022-11-11T10:41:28;11.73;;;6.25;;
75073;SDS011;63652;51.526;5.080;2022-11-11T10:44:19;13.90;;;6.88;;
75073;SDS011;63652;51.526;5.080;2022-11-11T10:50:00;14.55;;;8.10;;
75073;SDS011;63652;51.526;5.080;2022-11-11T10:52:32;14.45;;;7.53;;
75073;SDS011;63652;51.526;5.080;2022-11-11T10:57:31;17.75;;;8.15;;
75073;SDS011;63652;51.526;5.080;2022-11-11T11:02:34;12.48;;;6.25;;
75073;SDS011;63652;51.526;5.080;2022-11-11T11:05:12;15.18;;;6.72;;
75073;SDS011;63652;51.526;5.080;2022-11-11T11:07:40;12.45;;;6.38;;
75073;SDS011;63652;51.526;5.080;2022-11-11T11:10:16;12.55;;;6.82;;
75073;SDS011;63652;51.526;5.080;2022-11-11T11:12:58;11.00;;;5.60;;
75073;SDS011;63652;51.526;5.080;2022-11-11T11:15:26;11.60;;;5.30;;
75073;SDS011;63652;51.526;5.080;2022-11-11T11:18:07;11.57;;;6.68;;
75073;SDS011;63652;51.526;5.080;2022-11-11T11:20:34;9.82;;;5.28;;
75073;SDS011;63652;51.526;5.080;2022-11-11T11:23:00;11.65;;;5.18;;
75073;SDS011;63652;51.526;5.080;2022-11-11T11:25:26;10.60;;;6.45;;
75073;SDS011;63652;51.526;5.080;2022-11-11T11:28:03;12.20;;;5.43;;
75073;SDS011;63652;51.526;5.080;2022-11-11T11:30:37;12.05;;;5.47;;
75073;SDS011;63652;51.526;5.080;2022-11-11T11:33:04;11.77;;;5.65;;
75073;SDS011;63652;51.526;5.080;2022-11-11T11:35:35;13.27;;;4.70;;
75073;SDS011;63652;51.526;5.080;2022-11-11T11:38:08;9.63;;;5.07;;
75073;SDS011;63652;51.526;5.080;2022-11-11T11:40:51;9.65;;;5.15;;
75073;SDS011;63652;51.526;5.080;2022-11-11T11:46:00;8.70;;;4.90;;
75073;SDS011;63652;51.526;5.080;2022-11-11T11:56:51;10.55;;;4.10;;
75073;SDS011;63652;51.526;5.080;2022-11-11T11:59:26;7.93;;;4.32;;
75073;SDS011;63652;51.526;5.080;2022-11-11T12:07:25;9.75;;;4.30;;
75073;SDS011;63652;51.526;5.080;2022-11-11T12:10:35;10.38;;;4.25;;
75073;SDS011;63652;51.526;5.080;2022-11-11T12:13:11;6.75;;;4.43;;
75073;SDS011;63652;51.526;5.080;2022-11-11T12:21:10;9.82;;;4.60;;
75073;SDS011;63652;51.526;5.080;2022-11-11T12:31:59;6.60;;;3.78;;
75073;SDS011;63652;51.526;5.080;2022-11-11T12:43:32;5.63;;;3.60;;
75073;SDS011;63652;51.526;5.080;2022-11-11T12:46:07;8.50;;;3.60;;
75073;SDS011;63652;51.526;5.080;2022-11-11T12:51:32;5.20;;;3.03;;
75073;SDS011;63652;51.526;5.080;2022-11-11T12:59:45;5.75;;;2.75;;
75073;SDS011;63652;51.526;5.080;2022-11-11T13:05:04;6.70;;;2.40;;
75073;SDS011;63652;51.526;5.080;2022-11-11T13:15:23;5.63;;;2.75;;
75073;SDS011;63652;51.526;5.080;2022-11-11T13:17:50;4.50;;;2.65;;
75073;SDS011;63652;51.526;5.080;2022-11-11T13:23:06;7.35;;;2.55;;
75073;SDS011;63652;51.526;5.080;2022-11-11T13:25:32;5.30;;;2.35;;
75073;SDS011;63652;51.526;5.080;2022-11-11T13:28:03;6.32;;;2.83;;
75073;SDS011;63652;51.526;5.080;2022-11-11T13:30:40;5.45;;;2.10;;
75073;SDS011;63652;51.526;5.080;2022-11-11T13:33:11;5.97;;;2.15;;
75073;SDS011;63652;51.526;5.080;2022-11-11T13:36:13;4.45;;;2.28;;
75073;SDS011;63652;51.526;5.080;2022-11-11T13:38:35;3.42;;;1.73;;
75073;SDS011;63652;51.526;5.080;2022-11-11T13:41:04;5.47;;;2.28;;
75073;SDS011;63652;51.526;5.080;2022-11-11T13:43:41;6.05;;;1.85;;
75073;SDS011;63652;51.526;5.080;2022-11-11T13:48:56;6.15;;;2.35;;
75073;SDS011;63652;51.526;5.080;2022-11-11T13:51:41;5.00;;;2.15;;
75073;SDS011;63652;51.526;5.080;2022-11-11T13:54:28;5.22;;;2.20;;
75073;SDS011;63652;51.526;5.080;2022-11-11T13:57:08;4.43;;;2.20;;
75073;SDS011;63652;51.526;5.080;2022-11-11T13:59:41;7.80;;;2.00;;
75073;SDS011;63652;51.526;5.080;2022-11-11T14:12:41;6.68;;;3.20;;
75073;SDS011;63652;51.526;5.080;2022-11-11T14:18:10;5.50;;;3.25;;
75073;SDS011;63652;51.526;5.080;2022-11-11T14:20:41;7.00;;;3.22;;
75073;SDS011;63652;51.526;5.080;2022-11-11T14:25:50;4.10;;;1.90;;
75073;SDS011;63652;51.526;5.080;2022-11-11T14:28:20;4.03;;;1.63;;
75073;SDS011;63652;51.526;5.080;2022-11-11T14:30:57;3.92;;;1.60;;
75073;SDS011;63652;51.526;5.080;2022-11-11T14:41:44;4.00;;;1.58;;
75073;SDS011;63652;51.526;5.080;2022-11-11T14:49:44;4.15;;;1.65;;
75073;SDS011;63652;51.526;5.080;2022-11-11T14:52:25;4.05;;;1.35;;
75073;SDS011;63652;51.526;5.080;2022-11-11T14:55:00;3.40;;;1.30;;
75073;SDS011;63652;51.526;5.080;2022-11-11T14:57:33;5.22;;;1.65;;
75073;SDS011;63652;51.526;5.080;2022-11-11T15:00:01;2.90;;;1.40;;
75073;SDS011;63652;51.526;5.080;2022-11-11T15:02:31;4.20;;;1.45;;
75073;SDS011;63652;51.526;5.080;2022-11-11T15:04:58;4.18;;;1.60;;
75073;SDS011;63652;51.526;5.080;2022-11-11T15:07:41;3.50;;;1.60;;
75073;SDS011;63652;51.526;5.080;2022-11-11T15:15:29;4.65;;;1.67;;
75073;SDS011;63652;51.526;5.080;2022-11-11T15:26:43;6.03;;;1.60;;
75073;SDS011;63652;51.526;5.080;2022-11-11T15:29:19;4.88;;;2.63;;
75073;SDS011;63652;51.526;5.080;2022-11-11T15:37:49;3.45;;;1.70;;
75073;SDS011;63652;51.526;5.080;2022-11-11T15:40:22;4.30;;;1.50;;
75073;SDS011;63652;51.526;5.080;2022-11-11T15:42:49;4.18;;;1.73;;
75073;SDS011;63652;51.526;5.080;2022-11-11T15:47:43;3.08;;;1.20;;
75073;SDS011;63652;51.526;5.080;2022-11-11T15:52:56;3.10;;;1.70;;
75073;SDS011;63652;51.526;5.080;2022-11-11T15:55:24;2.63;;;1.25;;
75073;SDS011;63652;51.526;5.080;2022-11-11T15:57:49;4.72;;;1.42;;
75073;SDS011;63652;51.526;5.080;2022-11-11T16:02:49;3.83;;;1.67;;
75073;SDS011;63652;51.526;5.080;2022-11-11T16:05:20;4.53;;;1.42;;
75073;SDS011;63652;51.526;5.080;2022-11-11T16:07:47;2.85;;;1.33;;
75073;SDS011;63652;51.526;5.080;2022-11-11T16:12:48;4.40;;;1.98;;
75073;SDS011;63652;51.526;5.080;2022-11-11T16:15:23;4.00;;;2.08;;
75073;SDS011;63652;51.526;5.080;2022-11-11T16:17:53;10.90;;;3.53;;
75073;SDS011;63652;51.526;5.080;2022-11-11T16:20:29;3.85;;;2.03;;
75073;SDS011;63652;51.526;5.080;2022-11-11T16:23:01;6.70;;;1.73;;
75073;SDS011;63652;51.526;5.080;2022-11-11T16:25:29;4.72;;;1.63;;
75073;SDS011;63652;51.526;5.080;2022-11-11T16:27:54;3.35;;;1.70;;
75073;SDS011;63652;51.526;5.080;2022-11-11T16:30:33;3.92;;;1.75;;
75073;SDS011;63652;51.526;5.080;2022-11-11T16:33:00;2.90;;;1.60;;
75073;SDS011;63652;51.526;5.080;2022-11-11T16:35:27;4.25;;;2.10;;
75073;SDS011;63652;51.526;5.080;2022-11-11T16:37:54;4.63;;;2.30;;
75073;SDS011;63652;51.526;5.080;2022-11-11T16:45:48;3.05;;;1.73;;
75073;SDS011;63652;51.526;5.080;2022-11-11T16:51:07;6.13;;;2.50;;
75073;SDS011;63652;51.526;5.080;2022-11-11T16:53:38;6.32;;;2.72;;
75073;SDS011;63652;51.526;5.080;2022-11-11T16:56:07;12.52;;;4.03;;
75073;SDS011;63652;51.526;5.080;2022-11-11T16:59:14;13.85;;;4.45;;
75073;SDS011;63652;51.526;5.080;2022-11-11T17:01:51;9.80;;;4.43;;
75073;SDS011;63652;51.526;5.080;2022-11-11T17:04:16;10.93;;;5.63;;
75073;SDS011;63652;51.526;5.080;2022-11-11T17:06:55;12.95;;;5.68;;
75073;SDS011;63652;51.526;5.080;2022-11-11T17:12:00;9.10;;;4.40;;
75073;SDS011;63652;51.526;5.080;2022-11-11T17:14:25;10.88;;;4.45;;
75073;SDS011;63652;51.526;5.080;2022-11-11T17:16:52;7.90;;;3.88;;
75073;SDS011;63652;51.526;5.080;2022-11-11T17:19:17;9.18;;;4.10;;
75073;SDS011;63652;51.526;5.080;2022-11-11T17:21:42;9.32;;;4.30;;
75073;SDS011;63652;51.526;5.080;2022-11-11T17:24:08;12.55;;;4.80;;
75073;SDS011;63652;51.526;5.080;2022-11-11T17:26:33;11.88;;;4.75;;
75073;SDS011;63652;51.526;5.080;2022-11-11T17:28:59;10.05;;;5.00;;
75073;SDS011;63652;51.526;5.080;2022-11-11T17:31:24;8.98;;;4.68;;
75073;SDS011;63652;51.526;5.080;2022-11-11T17:33:51;7.18;;;3.70;;
75073;SDS011;63652;51.526;5.080;2022-11-11T17:36:17;8.35;;;3.80;;
75073;SDS011;63652;51.526;5.080;2022-11-11T17:38:42;8.63;;;4.57;;
75073;SDS011;63652;51.526;5.080;2022-11-11T17:41:11;9.98;;;4.80;;
75073;SDS011;63652;51.526;5.080;2022-11-11T17:43:37;6.53;;;3.70;;
75073;SDS011;63652;51.526;5.080;2022-11-11T17:46:03;10.93;;;4.85;;
75073;SDS011;63652;51.526;5.080;2022-11-11T17:48:29;8.45;;;3.70;;
75073;SDS011;63652;51.526;5.080;2022-11-11T17:50:55;8.80;;;4.10;;
75073;SDS011;63652;51.526;5.080;2022-11-11T17:53:21;9.07;;;3.72;;
75073;SDS011;63652;51.526;5.080;2022-11-11T17:55:46;10.85;;;4.97;;
75073;SDS011;63652;51.526;5.080;2022-11-11T17:58:11;8.30;;;4.20;;
75073;SDS011;63652;51.526;5.080;2022-11-11T20:17:46;9.85;;;4.22;;
75073;SDS011;63652;51.526;5.080;2022-11-11T20:20:14;9.77;;;4.50;;
75073;SDS011;63652;51.526;5.080;2022-11-11T20:22:40;9.30;;;5.00;;
75073;SDS011;63652;51.526;5.080;2022-11-11T20:25:13;9.73;;;5.05;;
75073;SDS011;63652;51.526;5.080;2022-11-11T20:27:41;9.52;;;5.13;;
75073;SDS011;63652;51.526;5.080;2022-11-11T20:30:07;9.63;;;5.05;;
75073;SDS011;63652;51.526;5.080;2022-11-11T20:32:34;10.82;;;5.88;;
75073;SDS011;63652;51.526;5.080;2022-11-11T20:35:00;9.93;;;5.78;;
75073;SDS011;63652;51.526;5.080;2022-11-11T20:37:32;13.68;;;5.95;;
75073;SDS011;63652;51.526;5.080;2022-11-11T20:39:58;11.50;;;5.55;;
75073;SDS011;63652;51.526;5.080;2022-11-11T20:42:26;9.38;;;5.68;;
75073;SDS011;63652;51.526;5.080;2022-11-11T20:44:58;9.13;;;5.63;;
75073;SDS011;63652;51.526;5.080;2022-11-11T20:47:28;9.50;;;5.65;;
75073;SDS011;63652;51.526;5.080;2022-11-11T20:49:54;9.68;;;5.63;;
75073;SDS011;63652;51.526;5.080;2022-11-11T20:52:22;11.60;;;7.07;;
75073;SDS011;63652;51.526;5.080;2022-11-11T21:05:08;13.27;;;8.40;;
75073;SDS011;63652;51.526;5.080;2022-11-11T21:07:34;14.23;;;8.43;;
75073;SDS011;63652;51.526;5.080;2022-11-11T21:10:08;12.38;;;8.15;;
75073;SDS011;63652;51.526;5.080;2022-11-11T21:12:35;15.20;;;8.27;;
75073;SDS011;63652;51.526;5.080;2022-11-11T21:15:04;16.70;;;9.38;;
75073;SDS011;63652;51.526;5.080;2022-11-11T21:17:29;17.08;;;10.02;;
75073;SDS011;63652;51.526;5.080;2022-11-11T21:19:57;15.43;;;8.60;;
75073;SDS011;63652;51.526;5.080;2022-11-11T21:22:23;15.43;;;9.68;;
75073;SDS011;63652;51.526;5.080;2022-11-11T21:24:50;19.10;;;11.20;;
75073;SDS011;63652;51.526;5.080;2022-11-11T21:27:21;19.90;;;11.65;;
75073;SDS011;63652;51.526;5.080;2022-11-11T21:29:46;23.73;;;13.77;;
75073;SDS011;63652;51.526;5.080;2022-11-11T21:32:12;23.42;;;13.30;;
75073;SDS011;63652;51.526;5.080;2022-11-11T21:34:38;25.73;;;13.85;;
75073;SDS011;63652;51.526;5.080;2022-11-11T21:49:32;23.35;;;14.43;;
75073;SDS011;63652;51.526;5.080;2022-11-11T21:52:01;23.17;;;13.85;;
75073;SDS011;63652;51.526;5.080;2022-11-11T21:54:27;26.55;;;13.90;;
75073;SDS011;63652;51.526;5.080;2022-11-11T21:56:52;19.58;;;13.27;;
75073;SDS011;63652;51.526;5.080;2022-11-11T21:59:21;25.67;;;14.63;;
75073;SDS011;63652;51.526;5.080;2022-11-11T22:01:49;21.55;;;12.70;;
75073;SDS011;63652;51.526;5.080;2022-11-11T22:04:15;18.52;;;11.70;;
75073;SDS011;63652;51.526;5.080;2022-11-11T22:27:22;7.65;;;5.13;;
75073;SDS011;63652;51.526;5.080;2022-11-11T22:29:48;8.93;;;5.65;;
75073;SDS011;63652;51.526;5.080;2022-11-11T22:32:22;8.10;;;5.20;;
75073;SDS011;63652;51.526;5.080;2022-11-11T22:34:49;7.55;;;5.07;;
75073;SDS011;63652;51.526;5.080;2022-11-11T22:37:18;8.15;;;5.50;;
75073;SDS011;63652;51.526;5.080;2022-11-11T22:39:45;10.20;;;6.25;;
75073;SDS011;63652;51.526;5.080;2022-11-11T22:42:11;9.30;;;5.68;;